x

New London Ledge Ct - Ledge Light Weather Station (ldlc3) Weather Station

9:55 - Tue 30th Jun 2015 All times are EDT. -4 hours from GMT.

  • Wind
    5mph, 7mph gusts
  • Aire Temp 70°f
  • Sea Pressure 1015.3mb
  • New London Ledge Ct - Ledge Light Weather Station
  • New London Ledge Ct - Ledge Light Weather Station

More Historic Weather Station data

Upgrade to MSW Pro to gain access to the past 30 days of data for over 8000 Wavebouys and Weather Stations around the globe.

Join Pro

Comparision Forecast

View Surf forecast
   
mar 06/30 9:55 5 7 mph 1015.3mb 70f
9:40 6 7 mph 1015.3mb 70f
9:25 7 8 mph 1015.4mb 70f
9:10 6 8 mph 1015.3mb 70f
8:55 5 7 mph 1015.4mb 69f
8:40 7
mph
1015.7mb 69f
8:25 3 5 mph 1015.6mb 69f
8:10 3 6 mph 1015.5mb 67f
7:55 7
mph
1015.6mb 67f
7:40 10
mph
1015.3mb 67f
7:25 8 9 mph 1015.3mb 66f
7:10 8 9 mph 1015.1mb 67f
6:55 7
mph
1014.9mb 65f
6:40 5 6 mph 1014.7mb 65f
6:25 6
mph
1014.7mb 64f
6:10 6
mph
1014.7mb 64f
5:55 7 8 mph 1014.4mb 63f
5:40 5 6 mph 1014.4mb 63f
5:25 6
mph
1014.4mb 63f
5:10 5 6 mph 1014.4mb 63f
4:55 3 5 mph 1014.3mb 63f
4:40 5
mph
1014.3mb 63f
4:25 5 6 mph 1014.3mb 63f
4:10 3 5 mph 1014.4mb 64f
3:55 2 3 mph 1014.3mb 64f
3:40  -  2 mph 1014.4mb 64f
3:25 1 2 mph 1014.4mb 64f
3:10 3 5 mph 1014.3mb 65f
2:55 2
mph
1014.3mb 65f
2:40 2 3 mph 1014.2mb 65f
2:25 1 2 mph 1014.2mb 65f
2:10 2 3 mph 1014.2mb 66f
1:55 3 5 mph 1014.2mb 66f
1:40 3 6 mph 1014.3mb 66f
1:25 2 3 mph 1014.1mb 66f
1:10 7 8 mph 1013.9mb 66f
lun 06/29 7:55 6 7 mph 1012.6mb 67f
7:45 5 7 mph 1012.4mb 67f
7:40 6 8 mph 1012.4mb 67f
7:25 8 9 mph 1012.4mb 67f
7:10 10 14 mph 1012.2mb 68f
6:55 7 11 mph 1012.3mb 67f
6:40 9 11 mph 1012.1mb 68f
6:25 10 11 mph 1012mb 67f
6:10 11 13 mph 1011.6mb 68f
5:55 8 11 mph 1011.7mb 69f
5:40 13 15 mph 1011.4mb 69f
5:25 14 16 mph 1011.4mb 69f
sáb 06/27 7:55 24 28 mph 1017.9mb 63f
7:40 23 28 mph 1018mb 63f
7:25 23 26 mph 1017.8mb 64f
7:10 23 25 mph 1017.6mb 64f
6:55 22 24 mph 1017.9mb 64f
6:40 17 21 mph 1018.3mb 64f
6:25 22 25 mph 1018.1mb 64f
6:10 21 24 mph 1018.2mb 64f
5:55 20 23 mph 1018.6mb 64f
5:40 21 24 mph 1018.7mb 64f
5:25 20 22 mph 1019.1mb 64f
5:10 17 21 mph 1019.4mb 63f
4:55 17 20 mph 1019.6mb 63f
4:40 16 18 mph 1019.7mb 63f
4:25 16 20 mph 1019.8mb 63f
4:10 16 18 mph 1019.8mb 63f
3:55 15 16 mph 1020.2mb 63f
3:40 15 16 mph 1020.3mb 63f
3:25 14 16 mph 1020.4mb 63f
3:10 15 16 mph 1020.4mb 64f
2:55 15 17 mph 1020.4mb 64f
2:40 17 18 mph 1020.2mb 64f
2:25 17 18 mph 1019.8mb 64f
2:10 18 21 mph 1019.6mb 64f
1:55 17 20 mph 1019.6mb 64f
1:40 16 18 mph 1019.7mb 64f
1:25 16 17 mph 1019.7mb 64f
1:10 17 18 mph 1019.8mb 64f
12:55 15 17 mph 1020mb 64f
12:40 16 18 mph 1019.9mb 64f
12:25 14 16 mph 1020mb 64f
12:10 14 16 mph 1020.1mb 64f
11:55 15 16 mph 1020.2mb 64f
11:40 13 15 mph 1020.3mb 65f
11:25 11 14 mph 1020.5mb 65f
11:10 13 15 mph 1020.5mb 65f
10:55 11 14 mph 1020.6mb 65f
10:40 11 13 mph 1020.6mb 64f
10:25 9 10 mph 1020.6mb 65f
10:10 8 10 mph 1020.7mb 65f
9:55 7 8 mph 1020.8mb 65f
9:40 7
mph
1020.7mb 65f
9:25 8 9 mph 1020.8mb 65f
9:10 9 10 mph 1020.9mb 65f
8:55 8 9 mph 1020.8mb 64f
8:40 7 8 mph 1020.9mb 64f
8:25 5 6 mph 1020.9mb 63f
8:10 3 5 mph 1021mb 64f
7:55 3 5 mph 1021mb 64f
7:40 2 3 mph 1021.1mb 64f
7:25 3
mph
1020.8mb 63f
7:10 3 5 mph 1020.5mb 62f
6:55 6
mph
1020.2mb 61f
6:40 1 2 mph 1020.2mb 63f
6:25 2 3 mph 1020.1mb 61f
6:10 5 7 mph 1019.7mb 61f
5:55 3 5 mph 1019.7mb 60f
5:40 5 6 mph 1019.6mb 61f
5:25 6 7 mph 1019.3mb 60f
5:10 5 6 mph 1019.1mb 60f
4:55 5 6 mph 1019.1mb 60f
4:40 5 6 mph 1019mb 60f
4:25 5 6 mph 1019mb 60f
4:10 3 5 mph 1019mb 61f
3:55 3 5 mph 1019.1mb 61f
3:40 2 3 mph 1019.1mb 62f
3:25 3 5 mph 1018.9mb 62f
3:10 3
mph
1018.9mb 61f
2:55 7
mph
1018.8mb 62f
2:40 6 7 mph 1018.6mb 62f
2:25 5 6 mph 1018.6mb 62f
2:10 5
mph
1018.7mb 62f
1:55 3 5 mph 1018.8mb 62f
1:40 5 6 mph 1018.7mb 63f
1:25 3 5 mph 1018.4mb 63f
1:10 2 3 mph 1018.2mb 63f